Weather at Polokwane International Airport

Public forecast

Using degrees Celsius for public forecast. Weather courtesy of forecast.io.

Current aviation weather report (METAR) for Polokwane International Airport

Retrieved 2021/05/14 20:00 UTC (32 minutes ago):

FAPP 142000Z AUTO 00000KT //// // ////// 14/02 Q1021

Aviation forecast (TAF) for Polokwane International Airport

Forecast is more than 12 hours old.

Retrieved 2021/05/05 07:00 UTC (10 days ago):

TAF FAPP 050600Z 0507/0518 19006KT CAVOK TX24/0512Z TN15/0518Z